Time;durP1;ratioP1;P1;durP2;ratioP2;P2;SDS_P1;SDS_P2;PMS_P1;PMS_P2;Temp;Humidity;BMP_temperature;BMP_pressure;BME280_temperature;BME280_humidity;BME280_pressure;Samples;Min_cycle;Max_cycle;Signal;HPM_P1;HPM_P2
2022/07/19 00:00:32;;;;;;;0.40;0.30;;;22.80;74.30;;;;;;5026020;28;20784;-71
2022/07/19 00:02:58;;;;;;;0.80;0.80;;;22.70;74.80;;;;;;5012773;28;20376;-71
2022/07/19 00:05:23;;;;;;;0.40;0.20;;;22.60;76.50;;;;;;5013251;28;20384;-71
2022/07/19 00:07:49;;;;;;;0.40;0.30;;;22.70;75.50;;;;;;5012420;28;20412;-72
2022/07/19 00:10:16;;;;;;;0.40;0.30;;;22.60;75.90;;;;;;5013257;28;20404;-72
2022/07/19 00:12:42;;;;;;;0.40;0.30;;;22.70;75.50;;;;;;5020953;28;20392;-72
2022/07/19 00:15:11;;;;;;;0.50;0.40;;;22.70;73.80;;;;;;5029260;28;20708;-73
2022/07/19 00:17:42;;;;;;;0.40;0.30;;;22.60;75.20;;;;;;5013105;28;20389;-70
2022/07/19 00:20:09;;;;;;;0.40;0.30;;;22.60;76.00;;;;;;5025511;28;20878;-71
2022/07/19 00:22:35;;;;;;;0.50;0.30;;;22.50;75.60;;;;;;5032788;28;20745;-71
2022/07/19 00:25:00;;;;;;;0.40;0.20;;;22.50;76.30;;;;;;5032029;28;20383;-70
2022/07/19 00:27:26;;;;;;;0.40;0.30;;;22.40;75.10;;;;;;5032528;28;20383;-70
2022/07/19 00:29:51;;;;;;;0.50;0.50;;;22.40;74.40;;;;;;5031227;28;20414;-71
2022/07/19 00:32:17;;;;;;;0.45;0.35;;;22.50;76.20;;;;;;5030360;28;20399;-70
2022/07/19 00:34:43;;;;;;;0.40;0.30;;;22.50;73.80;;;;;;5015981;28;20749;-72
2022/07/19 00:37:08;;;;;;;0.40;0.30;;;22.40;75.00;;;;;;5022273;28;20387;-71
2022/07/19 00:39:34;;;;;;;0.53;0.37;;;22.40;74.30;;;;;;5026854;28;20389;-70
2022/07/19 00:41:59;;;;;;;0.40;0.30;;;22.40;75.70;;;;;;5011822;28;20389;-71
2022/07/19 00:44:25;;;;;;;0.80;0.60;;;22.30;73.90;;;;;;5012346;28;20979;-71
2022/07/19 00:46:51;;;;;;;0.40;0.40;;;22.30;74.10;;;;;;5011648;28;20469;-71
2022/07/19 00:49:17;;;;;;;0.40;0.30;;;22.30;73.40;;;;;;5012440;28;20420;-71
2022/07/19 00:51:43;;;;;;;0.40;0.30;;;22.40;73.60;;;;;;5010695;28;20405;-73
2022/07/19 00:54:12;;;;;;;0.50;0.50;;;22.40;73.00;;;;;;5011981;28;20409;-71
2022/07/19 00:56:38;;;;;;;0.40;0.30;;;22.50;73.00;;;;;;5012673;28;20443;-71
2022/07/19 00:59:05;;;;;;;0.40;0.20;;;22.50;72.50;;;;;;5011405;28;21313;-70
2022/07/19 01:01:31;;;;;;;0.40;0.40;;;22.50;74.10;;;;;;5014365;28;20380;-70
2022/07/19 01:03:57;;;;;;;0.40;0.20;;;22.30;73.10;;;;;;5013858;28;20391;-71
2022/07/19 01:06:23;;;;;;;0.40;0.30;;;22.20;74.10;;;;;;5031929;28;20740;-71
2022/07/19 01:08:49;;;;;;;0.40;0.30;;;22.20;76.70;;;;;;5030932;28;20426;-71
2022/07/19 01:11:15;;;;;;;0.40;0.20;;;22.10;74.70;;;;;;5031629;28;20936;-71
2022/07/19 01:13:41;;;;;;;0.40;0.30;;;22.00;75.60;;;;;;5031635;28;20466;-71
2022/07/19 01:16:07;;;;;;;0.40;0.30;;;22.10;75.90;;;;;;5024051;28;20391;-71
2022/07/19 01:18:33;;;;;;;0.40;0.20;;;22.10;76.00;;;;;;5028110;28;20413;-71
2022/07/19 01:21:00;;;;;;;0.40;0.30;;;22.10;75.40;;;;;;5016807;28;20456;-71
2022/07/19 01:23:26;;;;;;;0.40;0.20;;;22.10;74.30;;;;;;5024984;28;20396;-71
2022/07/19 01:25:52;;;;;;;0.40;0.30;;;22.00;75.90;;;;;;5014625;28;20394;-72
2022/07/19 01:28:18;;;;;;;0.40;0.30;;;21.90;76.00;;;;;;5031521;28;20395;-71
2022/07/19 01:30:44;;;;;;;0.40;0.20;;;21.80;77.20;;;;;;5031381;28;20382;-73
2022/07/19 01:33:10;;;;;;;0.40;0.20;;;21.70;77.80;;;;;;5030808;28;20478;-71
2022/07/19 01:35:35;;;;;;;0.40;0.30;;;21.70;78.90;;;;;;5031257;28;20467;-70
2022/07/19 01:38:01;;;;;;;0.40;0.30;;;21.80;77.60;;;;;;5030674;28;20431;-71
2022/07/19 01:40:27;;;;;;;0.40;0.30;;;21.70;77.90;;;;;;5031411;28;20367;-71
2022/07/19 01:42:53;;;;;;;0.40;0.20;;;21.60;77.70;;;;;;5029480;28;20391;-71
2022/07/19 01:45:20;;;;;;;0.80;0.60;;;21.70;76.30;;;;;;5031420;28;20384;-71
2022/07/19 01:47:46;;;;;;;0.40;0.30;;;21.70;77.80;;;;;;5029860;28;20450;-73
2022/07/19 01:50:14;;;;;;;0.40;0.20;;;21.60;76.40;;;;;;5029897;28;20414;-71
2022/07/19 01:52:40;;;;;;;0.40;0.20;;;21.60;76.00;;;;;;5030786;28;20410;-71
2022/07/19 01:55:06;;;;;;;0.40;0.30;;;21.60;75.50;;;;;;5030486;28;21056;-70
2022/07/19 01:57:32;;;;;;;0.40;0.20;;;21.60;75.20;;;;;;5031273;28;20394;-71
2022/07/19 01:59:58;;;;;;;0.40;0.30;;;21.50;75.10;;;;;;5030323;28;20379;-70
2022/07/19 02:02:23;;;;;;;0.40;0.30;;;21.50;77.60;;;;;;5030818;28;20410;-70
2022/07/19 02:04:49;;;;;;;0.40;0.30;;;21.50;76.20;;;;;;5030217;28;20402;-72
2022/07/19 02:07:14;;;;;;;0.40;0.30;;;21.50;76.30;;;;;;5013493;28;20406;-70
2022/07/19 02:09:40;;;;;;;0.40;0.30;;;21.40;77.30;;;;;;5030930;28;20441;-70
2022/07/19 02:12:06;;;;;;;0.40;0.30;;;21.40;78.40;;;;;;5029880;28;20959;-71
2022/07/19 02:14:32;;;;;;;0.40;0.20;;;21.40;77.60;;;;;;5030928;28;20894;-70
2022/07/19 02:16:57;;;;;;;0.40;0.30;;;21.50;76.80;;;;;;5029907;28;20386;-70
2022/07/19 02:19:23;;;;;;;0.40;0.20;;;21.50;76.40;;;;;;5030899;28;20461;-71
2022/07/19 02:21:48;;;;;;;0.40;0.20;;;21.30;75.40;;;;;;5030167;28;20393;-73
2022/07/19 02:24:14;;;;;;;0.40;0.30;;;21.30;77.60;;;;;;5030356;28;20822;-71
2022/07/19 02:26:40;;;;;;;0.70;0.40;;;21.30;76.90;;;;;;5030658;28;20684;-71
2022/07/19 02:29:06;;;;;;;1.00;0.60;;;21.30;76.10;;;;;;5029807;28;21084;-71
2022/07/19 02:31:33;;;;;;;0.40;0.30;;;21.30;77.40;;;;;;5030665;28;20387;-71
2022/07/19 02:33:58;;;;;;;0.40;0.25;;;21.30;79.30;;;;;;5029713;28;20403;-71
2022/07/19 02:36:24;;;;;;;0.50;0.50;;;21.20;77.00;;;;;;5030391;28;20379;-71
2022/07/19 02:38:50;;;;;;;0.40;0.20;;;21.20;77.90;;;;;;5029819;28;20953;-73
2022/07/19 02:41:17;;;;;;;0.40;0.30;;;21.20;77.00;;;;;;5030547;28;20379;-71
2022/07/19 02:43:42;;;;;;;0.40;0.30;;;21.10;77.60;;;;;;5030151;28;20905;-71
2022/07/19 02:46:08;;;;;;;0.40;0.20;;;21.00;77.90;;;;;;5029991;28;20442;-72
2022/07/19 02:48:34;;;;;;;0.40;0.20;;;21.10;76.70;;;;;;5030538;28;20502;-71
2022/07/19 02:50:59;;;;;;;0.40;0.30;;;21.00;78.90;;;;;;5029445;28;20387;-71
2022/07/19 02:53:25;;;;;;;0.40;0.30;;;21.00;77.50;;;;;;4994127;28;20896;-71
2022/07/19 02:55:50;;;;;;;0.40;0.20;;;20.80;78.20;;;;;;5014548;28;20396;-73
2022/07/19 02:58:17;;;;;;;0.80;0.70;;;20.80;79.80;;;;;;5014519;28;20384;-71
2022/07/19 03:00:42;;;;;;;0.40;0.30;;;20.80;78.60;;;;;;5013555;28;20923;-71
2022/07/19 03:05:52;;;;;;;0.70;0.70;;;20.70;79.10;;;;;;4994318;28;20521;-72
2022/07/19 03:08:18;;;;;;;0.40;0.20;;;20.80;80.60;;;;;;4995203;28;20473;-71
2022/07/19 03:10:44;;;;;;;0.40;0.30;;;20.60;80.10;;;;;;4994723;28;20521;-71
2022/07/19 03:13:10;;;;;;;0.40;0.30;;;20.60;79.60;;;;;;4993830;28;20379;-71
2022/07/19 03:15:36;;;;;;;0.40;0.30;;;20.50;81.20;;;;;;4999592;28;20392;-71
2022/07/19 03:18:03;;;;;;;0.40;0.30;;;20.50;81.10;;;;;;5013288;28;20409;-70
2022/07/19 03:20:28;;;;;;;0.40;0.30;;;20.40;80.00;;;;;;5014480;28;20472;-71
2022/07/19 03:22:54;;;;;;;0.40;0.40;;;20.50;79.20;;;;;;5013257;28;20543;-71
2022/07/19 03:25:19;;;;;;;0.40;0.30;;;20.50;80.40;;;;;;5013815;28;20396;-71
2022/07/19 03:27:45;;;;;;;0.70;0.70;;;20.40;80.40;;;;;;4993205;28;20402;-71
2022/07/19 03:30:11;;;;;;;0.40;0.30;;;20.50;82.70;;;;;;4993769;28;20496;-71
2022/07/19 03:32:37;;;;;;;0.40;0.30;;;20.50;79.30;;;;;;5009557;28;20377;-71
2022/07/19 03:35:03;;;;;;;0.40;0.30;;;20.60;78.40;;;;;;5013682;28;20548;-71
2022/07/19 03:37:29;;;;;;;0.70;0.70;;;20.60;79.50;;;;;;5014145;28;20413;-71
2022/07/19 03:39:54;;;;;;;0.40;0.20;;;20.50;79.10;;;;;;5013527;28;20423;-72
2022/07/19 03:42:20;;;;;;;0.40;0.20;;;20.40;80.40;;;;;;5014277;28;20387;-71
2022/07/19 03:44:46;;;;;;;0.40;0.20;;;20.30;80.20;;;;;;5014184;28;20388;-71
2022/07/19 03:47:11;;;;;;;0.40;0.20;;;20.20;82.60;;;;;;5013137;28;21072;-71
2022/07/19 03:49:37;;;;;;;0.40;0.30;;;20.10;82.20;;;;;;5013802;28;20423;-71
2022/07/19 03:52:03;;;;;;;0.40;0.30;;;20.00;84.40;;;;;;4993783;28;20398;-71
2022/07/19 03:54:28;;;;;;;0.40;0.20;;;20.00;84.90;;;;;;5011288;28;20437;-71
2022/07/19 03:56:55;;;;;;;0.40;0.30;;;20.00;86.30;;;;;;5013559;28;20602;-73
2022/07/19 03:59:22;;;;;;;0.40;0.30;;;19.80;86.40;;;;;;5013893;28;20428;-71
2022/07/19 04:01:48;;;;;;;0.40;0.20;;;19.70;86.80;;;;;;5018570;28;20379;-71
2022/07/19 04:04:14;;;;;;;0.40;0.30;;;19.80;86.40;;;;;;5031859;28;21025;-71
2022/07/19 04:06:40;;;;;;;0.40;0.20;;;19.70;87.60;;;;;;5033037;28;20383;-71
2022/07/19 04:09:05;;;;;;;0.40;0.30;;;19.70;87.00;;;;;;5032866;28;20553;-71
2022/07/19 04:11:31;;;;;;;0.40;0.20;;;19.60;89.80;;;;;;5033532;28;20465;-71
2022/07/19 04:13:57;;;;;;;0.40;0.20;;;19.60;88.10;;;;;;5032391;28;20747;-72
2022/07/19 04:16:23;;;;;;;0.40;0.30;;;19.60;88.70;;;;;;5033037;28;20379;-71
2022/07/19 04:18:48;;;;;;;0.50;0.40;;;19.60;89.30;;;;;;5033033;28;20529;-71
2022/07/19 04:21:14;;;;;;;0.40;0.30;;;19.50;90.60;;;;;;5032849;28;20382;-71
2022/07/19 04:23:40;;;;;;;0.50;0.30;;;19.40;91.50;;;;;;5033050;28;20407;-71
2022/07/19 04:26:05;;;;;;;0.40;0.30;;;19.30;90.70;;;;;;5032389;28;20379;-71
2022/07/19 04:28:31;;;;;;;0.40;0.20;;;19.30;91.80;;;;;;5033222;28;20419;-71
2022/07/19 04:30:57;;;;;;;0.40;0.30;;;19.20;91.20;;;;;;5014876;28;20421;-73
2022/07/19 04:33:22;;;;;;;0.50;0.50;;;19.30;92.20;;;;;;5032917;28;20387;-71
2022/07/19 04:35:48;;;;;;;0.40;0.20;;;19.20;91.90;;;;;;5032754;28;20847;-71
2022/07/19 04:38:14;;;;;;;0.50;0.40;;;19.20;93.10;;;;;;5032114;28;20505;-71
2022/07/19 04:40:39;;;;;;;0.50;0.40;;;19.20;91.90;;;;;;5033025;28;20379;-71
2022/07/19 04:43:05;;;;;;;0.40;0.30;;;19.20;93.80;;;;;;5032056;28;20383;-72
2022/07/19 04:45:31;;;;;;;0.40;0.30;;;19.20;92.90;;;;;;5032872;28;20466;-71
2022/07/19 04:47:57;;;;;;;0.50;0.30;;;19.20;94.10;;;;;;5032305;28;20418;-74
2022/07/19 04:50:22;;;;;;;0.40;0.30;;;19.20;94.20;;;;;;5032381;28;20952;-71
2022/07/19 04:52:48;;;;;;;0.40;0.20;;;19.10;94.00;;;;;;5032271;28;20974;-71
2022/07/19 04:55:14;;;;;;;0.40;0.40;;;19.20;94.50;;;;;;5031756;28;20440;-72
2022/07/19 04:57:40;;;;;;;0.40;0.30;;;19.20;93.60;;;;;;5032576;28;20383;-71
2022/07/19 05:00:11;;;;;;;0.40;0.30;;;19.20;94.60;;;;;;5031997;28;20383;-71
2022/07/19 05:02:37;;;;;;;0.40;0.30;;;19.30;95.20;;;;;;5032630;28;20462;-71
2022/07/19 05:05:04;;;;;;;2.20;0.60;;;19.20;93.80;;;;;;5031577;28;20407;-71
2022/07/19 05:07:30;;;;;;;0.40;0.40;;;19.30;96.10;;;;;;5030489;28;20380;-71
2022/07/19 05:09:56;;;;;;;0.40;0.30;;;19.50;95.00;;;;;;5032146;28;20433;-74
2022/07/19 05:12:22;;;;;;;0.40;0.20;;;19.60;93.40;;;;;;5032073;28;20387;-71
2022/07/19 05:14:48;;;;;;;0.40;0.20;;;19.70;93.60;;;;;;5032212;28;20391;-71
2022/07/19 05:17:14;;;;;;;0.40;0.20;;;19.90;94.10;;;;;;5029200;28;20387;-71
2022/07/19 05:19:40;;;;;;;0.40;0.28;;;19.90;92.80;;;;;;5032089;28;20396;-71
2022/07/19 05:22:06;;;;;;;0.40;0.30;;;20.00;94.10;;;;;;5031294;28;20391;-71
2022/07/19 05:24:32;;;;;;;0.40;0.20;;;20.00;93.10;;;;;;4998034;28;20403;-71
2022/07/19 05:26:58;;;;;;;0.40;0.20;;;20.00;95.20;;;;;;5031594;28;20394;-72
2022/07/19 05:29:24;;;;;;;0.60;0.50;;;20.00;96.30;;;;;;5031521;28;20586;-71
2022/07/19 05:31:50;;;;;;;0.90;0.90;;;20.00;97.40;;;;;;5014153;28;20725;-71
2022/07/19 05:34:16;;;;;;;0.40;0.20;;;20.00;95.40;;;;;;5031307;28;20391;-71
2022/07/19 05:36:41;;;;;;;0.40;0.30;;;20.00;95.00;;;;;;5031677;28;20735;-71
2022/07/19 05:39:07;;;;;;;0.40;0.30;;;20.20;97.00;;;;;;5030406;28;20448;-71
2022/07/19 05:41:33;;;;;;;0.40;0.30;;;20.20;95.30;;;;;;5031710;28;20386;-71
2022/07/19 05:43:59;;;;;;;0.40;0.20;;;20.20;95.00;;;;;;5031307;28;20425;-73
2022/07/19 05:46:24;;;;;;;0.40;0.30;;;20.30;97.70;;;;;;5013561;28;20793;-70
2022/07/19 05:48:50;;;;;;;0.40;0.30;;;20.30;98.70;;;;;;5031465;28;20429;-71
2022/07/19 05:51:16;;;;;;;0.40;0.30;;;20.40;98.10;;;;;;5030706;28;20399;-70
2022/07/19 05:53:42;;;;;;;0.40;0.30;;;20.50;95.60;;;;;;5031181;28;20426;-71
2022/07/19 05:56:09;;;;;;;0.40;0.30;;;20.60;97.30;;;;;;5012884;28;20878;-71
2022/07/19 05:58:35;;;;;;;0.60;0.60;;;20.60;99.20;;;;;;5018903;28;20446;-71
2022/07/19 06:01:18;;;;;;;0.40;0.30;;;20.70;97.60;;;;;;5023331;28;20387;-73
2022/07/19 06:03:51;;;;;;;0.40;0.30;;;20.80;96.60;;;;;;5014363;28;20421;-71
2022/07/19 06:06:17;;;;;;;0.40;0.20;;;20.90;98.40;;;;;;5027753;28;20375;-71
2022/07/19 06:08:44;;;;;;;0.40;0.30;;;20.90;98.10;;;;;;5031131;28;20494;-71
2022/07/19 06:11:10;;;;;;;0.40;0.30;;;21.00;99.40;;;;;;5012188;28;20512;-71
2022/07/19 06:13:36;;;;;;;0.40;0.30;;;21.00;97.50;;;;;;5031085;28;20538;-71
2022/07/19 06:16:02;;;;;;;4.30;3.50;;;21.10;97.60;;;;;;5030566;28;20477;-74
2022/07/19 06:18:33;;;;;;;2.60;2.40;;;21.20;96.50;;;;;;5030722;28;20570;-71
2022/07/19 06:21:03;;;;;;;0.40;0.30;;;21.40;95.30;;;;;;5030680;28;20839;-71
2022/07/19 06:23:29;;;;;;;0.40;0.30;;;21.40;94.00;;;;;;5030307;28;20494;-71
2022/07/19 06:25:55;;;;;;;0.40;0.23;;;21.60;91.70;;;;;;5030364;28;20484;-71
2022/07/19 06:28:21;;;;;;;0.40;0.30;;;21.70;91.20;;;;;;5029634;28;20391;-71
2022/07/19 06:30:46;;;;;;;0.40;0.28;;;21.80;87.30;;;;;;5018117;28;20737;-70
2022/07/19 06:33:12;;;;;;;0.40;0.30;;;22.00;86.60;;;;;;5010697;28;20411;-71
2022/07/19 06:35:40;;;;;;;0.40;0.30;;;22.10;84.60;;;;;;5011460;28;20458;-71
2022/07/19 06:38:05;;;;;;;0.40;0.30;;;22.30;81.70;;;;;;5010307;28;20451;-72
2022/07/19 06:40:31;;;;;;;0.40;0.30;;;22.40;81.60;;;;;;5010798;28;20381;-71
2022/07/19 06:42:57;;;;;;;0.50;0.30;;;22.60;80.00;;;;;;4993511;28;20413;-71
2022/07/19 06:45:23;;;;;;;0.40;0.30;;;22.70;80.10;;;;;;5010256;28;20400;-71
2022/07/19 06:47:50;;;;;;;0.40;0.30;;;22.80;79.00;;;;;;5011076;28;20869;-71
2022/07/19 06:50:17;;;;;;;0.80;0.70;;;23.30;77.00;;;;;;5016161;28;20411;-71
2022/07/19 06:52:42;;;;;;;0.50;0.30;;;23.80;76.30;;;;;;5030464;28;20490;-71
2022/07/19 06:55:08;;;;;;;0.40;0.30;;;23.90;76.80;;;;;;5029925;28;20470;-71
2022/07/19 06:57:34;;;;;;;0.40;0.30;;;24.00;75.50;;;;;;5030781;28;20391;-71
2022/07/19 07:00:00;;;;;;;0.40;0.30;;;24.00;75.30;;;;;;5030910;28;20441;-71
2022/07/19 07:02:25;;;;;;;0.40;0.30;;;24.10;77.50;;;;;;5019955;28;20388;-71
2022/07/19 07:04:51;;;;;;;0.40;0.20;;;24.00;77.20;;;;;;5010784;28;20393;-71
2022/07/19 07:07:17;;;;;;;0.40;0.20;;;24.20;78.20;;;;;;5009933;28;20856;-71
2022/07/19 07:09:43;;;;;;;0.40;0.30;;;24.20;77.80;;;;;;5011570;28;20413;-72
2022/07/19 07:12:09;;;;;;;0.40;0.30;;;24.40;76.60;;;;;;5029742;28;20767;-72
2022/07/19 07:14:35;;;;;;;0.40;0.30;;;24.40;76.70;;;;;;5030626;28;20375;-71
2022/07/19 07:17:01;;;;;;;0.40;0.30;;;24.50;76.00;;;;;;5030387;28;20739;-72
2022/07/19 07:19:27;;;;;;;0.40;0.30;;;24.60;74.90;;;;;;5029685;28;20394;-71
2022/07/19 07:21:52;;;;;;;0.45;0.38;;;24.60;74.50;;;;;;4999046;28;20389;-71
2022/07/19 07:24:18;;;;;;;1.60;0.90;;;24.50;75.30;;;;;;5009631;28;20904;-71
2022/07/19 07:26:44;;;;;;;0.40;0.30;;;24.80;74.10;;;;;;5010841;28;20431;-71
2022/07/19 07:29:10;;;;;;;0.40;0.30;;;24.80;74.20;;;;;;4992320;28;20580;-73
2022/07/19 07:31:36;;;;;;;0.40;0.20;;;24.80;75.00;;;;;;5021166;28;20394;-72
2022/07/19 07:34:02;;;;;;;0.40;0.30;;;24.70;73.80;;;;;;5030219;28;20391;-72
2022/07/19 07:36:28;;;;;;;0.40;0.28;;;25.00;72.50;;;;;;5029451;28;20394;-71
2022/07/19 07:38:54;;;;;;;0.40;0.30;;;25.00;72.60;;;;;;5026583;28;20595;-72
2022/07/19 07:41:20;;;;;;;0.40;0.20;;;25.30;71.50;;;;;;4995163;28;20740;-71
2022/07/19 07:43:46;;;;;;;0.40;0.30;;;25.40;70.80;;;;;;5014345;28;20429;-72
2022/07/19 07:46:12;;;;;;;0.40;0.20;;;25.30;71.80;;;;;;5013447;28;20475;-72
2022/07/19 07:48:37;;;;;;;0.40;0.30;;;25.30;73.50;;;;;;5015063;28;20424;-72
2022/07/19 07:51:03;;;;;;;6.30;0.80;;;25.50;72.10;;;;;;5033956;28;20387;-72
2022/07/19 07:53:30;;;;;;;0.40;0.30;;;25.40;72.80;;;;;;5033123;28;21333;-70
2022/07/19 07:55:56;;;;;;;1.90;1.40;;;25.70;71.60;;;;;;5033693;28;20383;-71
2022/07/19 07:58:21;;;;;;;0.40;0.30;;;25.80;72.00;;;;;;5032988;28;20709;-71
2022/07/19 08:00:47;;;;;;;0.40;0.20;;;25.80;70.60;;;;;;5028947;28;20856;-72
2022/07/19 08:03:13;;;;;;;0.40;0.20;;;25.90;70.00;;;;;;5029289;28;20398;-72
2022/07/19 08:05:39;;;;;;;0.40;0.20;;;25.80;70.20;;;;;;5033585;28;20384;-72
2022/07/19 08:08:05;;;;;;;0.40;0.30;;;25.80;70.50;;;;;;5033416;28;20399;-72
2022/07/19 08:10:32;;;;;;;0.40;0.30;;;25.90;69.80;;;;;;5032395;28;20438;-72
2022/07/19 08:12:58;;;;;;;0.50;0.40;;;26.00;70.50;;;;;;5017441;28;20385;-69
2022/07/19 08:15:24;;;;;;;0.40;0.30;;;26.10;69.80;;;;;;5012939;28;20385;-72
2022/07/19 08:17:50;;;;;;;0.40;0.30;;;26.20;70.70;;;;;;5013589;28;20860;-71
2022/07/19 08:20:16;;;;;;;0.40;0.30;;;26.30;69.90;;;;;;5012912;28;20392;-72
2022/07/19 08:22:42;;;;;;;0.40;0.30;;;26.30;69.60;;;;;;5013647;28;20393;-72
2022/07/19 08:25:08;;;;;;;0.40;0.20;;;26.30;69.20;;;;;;5032659;28;20842;-74
2022/07/19 08:27:34;;;;;;;0.40;0.30;;;26.20;70.00;;;;;;5032676;28;20383;-71
2022/07/19 08:30:01;;;;;;;0.40;0.30;;;26.30;69.30;;;;;;5032833;28;20430;-72
2022/07/19 08:32:26;;;;;;;0.40;0.20;;;26.40;67.80;;;;;;5032141;28;20735;-72
2022/07/19 08:34:52;;;;;;;0.40;0.28;;;26.60;68.00;;;;;;5033446;28;20395;-71
2022/07/19 08:37:18;;;;;;;0.40;0.30;;;26.50;68.20;;;;;;5031847;28;20387;-72
2022/07/19 08:39:44;;;;;;;0.40;0.25;;;26.40;68.70;;;;;;5018984;28;20865;-72
2022/07/19 08:42:09;;;;;;;0.40;0.30;;;26.60;67.30;;;;;;4995273;28;20958;-75
2022/07/19 08:44:38;;;;;;;0.40;0.30;;;26.60;67.90;;;;;;5012606;28;20463;-72
2022/07/19 08:47:05;;;;;;;0.40;0.30;;;26.70;66.20;;;;;;5012982;28;20472;-72
2022/07/19 08:49:31;;;;;;;0.40;0.30;;;26.70;64.90;;;;;;5023715;28;20494;-71
2022/07/19 08:51:57;;;;;;;0.43;0.43;;;26.80;63.90;;;;;;5032655;28;20387;-72
2022/07/19 08:54:23;;;;;;;0.50;0.40;;;27.20;62.80;;;;;;5031519;28;20426;-72
2022/07/19 08:59:33;;;;;;;0.40;0.30;;;27.40;62.30;;;;;;5031677;28;20386;-71
2022/07/19 09:01:59;;;;;;;1.00;1.00;;;27.50;61.50;;;;;;5024158;28;20746;-69
2022/07/19 09:04:25;;;;;;;0.40;0.20;;;27.60;61.00;;;;;;5022405;28;20411;-71
2022/07/19 09:06:53;;;;;;;0.40;0.30;;;27.70;59.70;;;;;;5011931;28;20400;-72
2022/07/19 09:09:27;;;;;;;0.40;0.30;;;27.60;60.20;;;;;;5011557;28;20413;-72
2022/07/19 09:11:55;;;;;;;0.40;0.30;;;27.80;59.40;;;;;;5012603;28;20706;-72
2022/07/19 09:14:25;;;;;;;0.60;0.60;;;27.70;59.70;;;;;;5021458;28;20395;-72
2022/07/19 09:16:57;;;;;;;0.40;0.20;;;27.60;60.40;;;;;;5032263;28;20391;-72
2022/07/19 09:19:24;;;;;;;1.70;0.80;;;27.80;59.20;;;;;;5031395;28;20445;-72
2022/07/19 09:22:02;;;;;;;0.40;0.30;;;27.90;58.60;;;;;;5028052;28;20794;-72
2022/07/19 09:24:30;;;;;;;0.40;0.30;;;27.90;57.90;;;;;;5011812;28;20396;-72
2022/07/19 09:27:05;;;;;;;0.40;0.30;;;27.90;58.90;;;;;;5012378;28;20385;-72
2022/07/19 09:29:33;;;;;;;0.40;0.20;;;28.00;58.50;;;;;;5011528;28;20788;-71
2022/07/19 09:32:06;;;;;;;0.40;0.20;;;28.30;57.30;;;;;;5017231;28;20401;-72
2022/07/19 09:34:34;;;;;;;0.40;0.30;;;28.50;56.20;;;;;;5031195;28;20383;-71
2022/07/19 09:37:09;;;;;;;0.40;0.30;;;28.60;55.90;;;;;;5031946;28;20383;-72
2022/07/19 09:39:34;;;;;;;0.40;0.20;;;28.50;55.70;;;;;;5031157;28;20478;-72
2022/07/19 09:42:02;;;;;;;0.68;0.68;;;28.80;55.20;;;;;;5031688;28;20783;-72
2022/07/19 09:44:29;;;;;;;0.40;0.20;;;28.90;54.60;;;;;;5017103;28;20420;-72
2022/07/19 09:46:55;;;;;;;0.40;0.30;;;29.00;54.80;;;;;;5012004;28;20389;-72
2022/07/19 09:53:11;;;;;;;0.40;0.20;;;29.40;53.30;;;;;;5223015;23;21661;31
2022/07/19 09:55:37;;;;;;;0.40;0.20;;;29.30;53.40;;;;;;4911755;29;20848;-68
2022/07/19 09:58:04;;;;;;;0.40;0.20;;;29.40;53.20;;;;;;4915569;29;20556;-68
2022/07/19 10:00:30;;;;;;;0.60;0.60;;;29.60;52.90;;;;;;4914722;29;20761;-68
2022/07/19 10:02:58;;;;;;;0.40;0.30;;;29.60;52.60;;;;;;4929126;28;20509;-67
2022/07/19 10:05:26;;;;;;;0.80;0.70;;;29.60;52.00;;;;;;4914840;29;20397;-66
2022/07/19 10:07:54;;;;;;;0.40;0.30;;;29.80;51.90;;;;;;4914424;29;20443;-67
2022/07/19 10:10:22;;;;;;;0.40;0.30;;;29.90;51.70;;;;;;4915169;29;20417;-67
2022/07/19 10:12:50;;;;;;;0.40;0.30;;;29.80;52.60;;;;;;4914694;29;20390;-68
2022/07/19 10:15:17;;;;;;;0.40;0.30;;;30.00;52.30;;;;;;4915300;29;20396;-67
2022/07/19 10:18:11;;;;;;;0.70;0.70;;;30.00;51.90;;;;;;4928788;29;20392;-66
2022/07/19 10:20:38;;;;;;;0.40;0.20;;;30.00;51.50;;;;;;4914209;29;20495;-68
2022/07/19 10:23:04;;;;;;;0.40;0.30;;;30.10;50.10;;;;;;4929467;29;20389;-68
2022/07/19 10:25:46;;;;;;;0.40;0.20;;;30.30;50.20;;;;;;4914083;29;20417;-67
2022/07/19 10:28:35;;;;;;;0.40;0.20;;;30.60;49.80;;;;;;4915103;29;20863;-68
2022/07/19 10:31:01;;;;;;;0.40;0.30;;;30.70;49.40;;;;;;4914936;29;20412;-67
2022/07/19 10:33:37;;;;;;;0.40;0.20;;;30.80;49.70;;;;;;4914057;29;20473;-67
2022/07/19 10:36:38;;;;;;;0.40;0.30;;;30.60;49.60;;;;;;4914888;29;20440;-67
2022/07/19 10:39:19;;;;;;;0.40;0.30;;;30.90;47.60;;;;;;4914751;29;20404;-67
2022/07/19 10:42:21;;;;;;;0.40;0.20;;;30.90;47.60;;;;;;4914020;29;20487;-68
2022/07/19 10:45:01;;;;;;;0.40;0.20;;;31.00;48.80;;;;;;4892609;29;20441;-68
2022/07/19 10:47:39;;;;;;;0.40;0.30;;;31.00;48.00;;;;;;4911811;29;20488;-68
2022/07/19 10:50:06;;;;;;;0.40;0.30;;;31.10;47.30;;;;;;4929269;28;20917;-68
2022/07/19 10:52:39;;;;;;;0.40;0.20;;;31.20;48.10;;;;;;4913719;29;20408;-68
2022/07/19 10:55:27;;;;;;;0.40;0.20;;;31.10;48.60;;;;;;4925898;29;20431;-68
2022/07/19 10:58:05;;;;;;;0.40;0.20;;;31.30;48.80;;;;;;4933321;29;20395;-67
2022/07/19 11:00:32;;;;;;;0.40;0.20;;;31.20;48.60;;;;;;4932703;29;20864;-68
2022/07/19 11:03:33;;;;;;;0.40;0.30;;;31.30;48.60;;;;;;4933353;29;20402;-68
2022/07/19 11:06:01;;;;;;;0.40;0.30;;;31.40;47.90;;;;;;4856334;29;20461;-68
2022/07/19 11:08:40;;;;;;;0.40;0.20;;;31.70;48.10;;;;;;4918046;29;20796;-67
2022/07/19 11:11:09;;;;;;;0.40;0.20;;;31.80;47.20;;;;;;4932440;29;21093;-67
2022/07/19 11:13:37;;;;;;;0.40;0.20;;;31.70;46.50;;;;;;4931898;29;20756;-68
2022/07/19 11:16:03;;;;;;;0.40;0.20;;;31.70;45.90;;;;;;4936850;29;20470;-68
2022/07/19 11:18:32;;;;;;;0.40;0.30;;;31.90;46.40;;;;;;4936162;29;20825;-67
2022/07/19 11:21:00;;;;;;;0.40;0.20;;;31.80;46.60;;;;;;4936556;29;20781;-67
2022/07/19 11:23:30;;;;;;;0.40;0.30;;;32.10;46.50;;;;;;4936869;29;20388;-67
2022/07/19 11:26:34;;;;;;;0.40;0.20;;;32.20;47.20;;;;;;4937087;29;20431;-67
2022/07/19 11:29:00;;;;;;;0.40;0.35;;;32.50;46.90;;;;;;4898083;29;20458;-68
2022/07/19 11:31:25;;;;;;;0.40;0.20;;;32.70;45.30;;;;;;4937006;29;20434;-67
2022/07/19 11:33:56;;;;;;;0.40;0.20;;;32.60;45.30;;;;;;4935980;29;20391;-67
2022/07/19 11:36:23;;;;;;;0.40;0.30;;;32.80;44.40;;;;;;4936997;29;20552;-66
2022/07/19 11:38:54;;;;;;;0.40;0.20;;;33.00;43.30;;;;;;4935937;29;20887;-67
2022/07/19 11:41:27;;;;;;;0.40;0.20;;;32.90;43.10;;;;;;4935511;29;20392;-66
2022/07/19 11:44:06;;;;;;;0.40;0.20;;;33.30;44.10;;;;;;4936410;29;20407;-68
2022/07/19 11:46:34;;;;;;;0.50;0.50;;;33.80;42.80;;;;;;4935787;29;20744;-68
2022/07/19 11:49:03;;;;;;;0.40;0.30;;;34.50;41.90;;;;;;4936556;29;20481;-66
2022/07/19 11:51:30;;;;;;;0.40;0.20;;;35.40;40.80;;;;;;4936370;29;20398;-68
2022/07/19 11:53:57;;;;;;;0.40;0.20;;;36.00;39.90;;;;;;4935667;29;20859;-67
2022/07/19 11:56:29;;;;;;;0.40;0.30;;;36.40;38.20;;;;;;4936523;29;20435;-67
2022/07/19 11:58:58;;;;;;;0.40;0.20;;;36.00;38.00;;;;;;4935817;29;20530;-67
2022/07/19 12:01:30;;;;;;;0.40;0.30;;;36.40;36.70;;;;;;4936112;29;20392;-67
2022/07/19 12:04:01;;;;;;;0.40;0.20;;;36.10;36.20;;;;;;4936148;29;20396;-67
2022/07/19 12:06:47;;;;;;;0.40;0.20;;;36.60;35.70;;;;;;4936442;29;20674;-67
2022/07/19 12:09:16;;;;;;;0.52;0.52;;;36.20;35.30;;;;;;4936159;29;20416;-67
2022/07/19 12:11:44;;;;;;;0.40;0.20;;;36.60;34.80;;;;;;4935618;29;20391;-66
2022/07/19 12:14:19;;;;;;;0.40;0.40;;;37.00;33.60;;;;;;4936145;29;20752;-67
2022/07/19 12:16:46;;;;;;;0.40;0.20;;;37.20;33.00;;;;;;4935285;29;20400;-67
2022/07/19 12:19:14;;;;;;;0.40;0.20;;;36.90;33.40;;;;;;4936387;29;20411;-67
2022/07/19 12:21:41;;;;;;;0.40;0.20;;;37.00;35.60;;;;;;4935396;29;20387;-68
2022/07/19 12:24:27;;;;;;;0.40;0.20;;;37.20;32.40;;;;;;4935914;29;20396;-67
2022/07/19 12:27:03;;;;;;;0.40;0.20;;;37.60;34.20;;;;;;4934603;29;20413;-66
2022/07/19 12:29:35;;;;;;;0.40;0.20;;;37.40;32.20;;;;;;4936048;29;20753;-67
2022/07/19 12:32:15;;;;;;;0.40;0.20;;;37.30;35.20;;;;;;4935976;29;20908;-67
2022/07/19 12:34:50;;;;;;;0.40;0.20;;;37.80;33.90;;;;;;4935177;29;20394;-68
2022/07/19 12:37:32;;;;;;;0.40;0.20;;;36.80;32.50;;;;;;4936024;29;20388;-68
2022/07/19 12:40:05;;;;;;;0.40;0.20;;;37.70;32.10;;;;;;4935407;29;20459;-68
2022/07/19 12:43:03;;;;;;;0.40;0.20;;;37.80;30.20;;;;;;4935882;29;20480;-69
2022/07/19 12:45:35;;;;;;;0.40;0.20;;;37.30;30.10;;;;;;4935618;29;20439;-66
2022/07/19 12:48:02;;;;;;;0.40;0.27;;;37.30;32.30;;;;;;4935731;29;20423;-66
2022/07/19 12:50:33;;;;;;;0.40;0.20;;;37.60;33.00;;;;;;4935232;29;20962;-67
2022/07/19 12:53:03;;;;;;;0.40;0.20;;;37.50;31.50;;;;;;4934409;29;20388;-66
2022/07/19 12:55:31;;;;;;;0.40;0.20;;;38.00;30.90;;;;;;4933893;29;20519;-66
2022/07/19 12:57:58;;;;;;;0.40;0.20;;;38.10;31.90;;;;;;4933522;29;20403;-67
2022/07/19 13:00:26;;;;;;;0.40;0.30;;;37.30;30.30;;;;;;4933962;29;20490;-67